createdAt,value
2023-02-08T00:02:12.063Z,99.90
2023-02-08T00:06:29.123Z,99.90
2023-02-08T00:10:46.178Z,99.90
2023-02-08T00:15:03.856Z,99.90
2023-02-08T00:19:20.977Z,99.90
2023-02-08T00:23:38.381Z,99.90
2023-02-08T00:27:55.568Z,99.90
2023-02-08T00:32:12.595Z,99.90
2023-02-08T00:36:29.627Z,99.90
2023-02-08T00:40:46.661Z,99.90
2023-02-08T00:45:04.352Z,99.90
2023-02-08T00:49:21.481Z,99.90
2023-02-08T00:53:39.201Z,99.90
2023-02-08T00:57:56.196Z,99.90
2023-02-08T01:02:13.548Z,99.90
2023-02-08T01:06:31.010Z,99.90
2023-02-08T01:10:48.152Z,99.90
2023-02-08T01:15:06.081Z,99.90
2023-02-08T01:19:23.278Z,99.90
2023-02-08T01:23:41.041Z,99.90
2023-02-08T01:27:59.079Z,99.90
2023-02-08T01:32:16.222Z,99.90
2023-02-08T01:36:33.623Z,99.90
2023-02-08T01:40:50.689Z,99.90
2023-02-08T01:45:17.509Z,99.90
2023-02-08T01:49:36.819Z,99.90
2023-02-08T01:53:56.802Z,99.90
2023-02-08T01:58:15.580Z,99.90
2023-02-08T02:02:33.563Z,99.90
2023-02-08T02:06:54.299Z,99.90
2023-02-08T02:11:11.439Z,99.90
2023-02-08T02:15:28.520Z,99.90
2023-02-08T02:20:08.417Z,99.90
2023-02-08T02:24:42.151Z,99.90
2023-02-08T02:29:29.944Z,99.90
2023-02-08T02:33:59.817Z,99.90
2023-02-08T02:38:44.305Z,99.90
2023-02-08T02:43:39.282Z,99.90
2023-02-08T02:48:12.207Z,99.90
2023-02-08T02:52:38.786Z,99.90
2023-02-08T02:57:01.942Z,99.90
2023-02-08T03:01:26.137Z,99.90
2023-02-08T03:05:43.443Z,99.90
2023-02-08T03:10:18.597Z,99.90
2023-02-08T03:14:54.828Z,99.90
2023-02-08T03:19:26.213Z,99.90
2023-02-08T03:24:25.046Z,99.90
2023-02-08T03:28:54.157Z,99.90
2023-02-08T03:33:19.987Z,99.90
2023-02-08T03:37:46.371Z,99.90
2023-02-08T03:42:10.124Z,99.90
2023-02-08T03:46:34.440Z,99.90
2023-02-08T03:50:54.765Z,99.90
2023-02-08T03:55:20.336Z,99.90
2023-02-08T03:59:40.936Z,99.90
2023-02-08T04:03:59.674Z,99.90
2023-02-08T04:08:16.815Z,99.90
2023-02-08T04:12:33.919Z,99.90
2023-02-08T04:16:51.215Z,99.90
2023-02-08T04:21:08.441Z,99.90
2023-02-08T04:25:26.709Z,99.90
2023-02-08T04:29:43.895Z,99.90
2023-02-08T04:34:01.036Z,99.90
2023-02-08T04:38:18.463Z,99.90
2023-02-08T04:42:35.758Z,99.90
2023-02-08T04:46:53.282Z,99.90
2023-02-08T04:51:10.368Z,99.90
2023-02-08T04:55:27.553Z,99.90
2023-02-08T04:59:44.644Z,99.90
2023-02-08T05:04:01.810Z,99.90
2023-02-08T05:08:18.889Z,99.90
2023-02-08T05:12:36.043Z,99.90
2023-02-08T05:16:53.149Z,99.90
2023-02-08T05:21:10.643Z,99.90
2023-02-08T05:25:27.776Z,99.90
2023-02-08T05:29:44.896Z,99.90
2023-02-08T05:34:02.258Z,99.90
2023-02-08T05:38:19.333Z,99.90
2023-02-08T05:42:36.465Z,99.90
2023-02-08T05:46:53.608Z,99.90
2023-02-08T05:51:10.842Z,99.90
2023-02-08T05:55:28.601Z,99.90
2023-02-08T05:59:45.735Z,99.90
2023-02-08T06:04:02.964Z,99.90
2023-02-08T06:08:20.089Z,99.90
2023-02-08T06:12:37.256Z,99.90
2023-02-08T06:16:54.390Z,99.90
2023-02-08T06:21:12.413Z,99.90
2023-02-08T06:25:29.559Z,99.90
2023-02-08T06:29:46.735Z,99.90
2023-02-08T06:34:03.883Z,99.90
2023-02-08T06:38:21.353Z,99.90
2023-02-08T06:42:38.447Z,99.90
2023-02-08T06:46:55.536Z,99.90
2023-02-08T06:51:12.633Z,99.90
2023-02-08T06:55:29.700Z,99.90
2023-02-08T06:59:46.892Z,99.90
2023-02-08T07:04:04.261Z,99.90
2023-02-08T07:08:21.336Z,99.90
2023-02-08T07:12:38.438Z,99.90
2023-02-08T07:16:56.325Z,99.90
2023-02-08T07:21:13.782Z,99.90
2023-02-08T07:25:30.860Z,99.90
2023-02-08T07:29:47.940Z,99.90
2023-02-08T07:34:05.337Z,99.90
2023-02-08T07:38:22.485Z,99.90
2023-02-08T07:42:39.626Z,99.90
2023-02-08T07:46:56.662Z,99.90
2023-02-08T07:51:13.702Z,99.90
2023-02-08T07:55:30.748Z,99.90
2023-02-08T07:59:48.312Z,99.90
2023-02-08T08:04:05.477Z,99.90
2023-02-08T08:08:22.574Z,99.90
2023-02-08T08:12:39.685Z,99.90
2023-02-08T08:16:56.767Z,99.90
2023-02-08T08:21:15.324Z,99.90
2023-02-08T08:25:32.438Z,99.90
2023-02-08T08:29:49.558Z,99.90
2023-02-08T08:34:06.694Z,99.90
2023-02-08T08:38:23.815Z,99.90
2023-02-08T08:42:41.068Z,99.90
2023-02-08T08:46:59.404Z,99.90
2023-02-08T08:51:16.520Z,99.90
2023-02-08T08:55:33.594Z,99.90
2023-02-08T08:59:50.768Z,99.90
2023-02-08T09:04:08.694Z,99.90
2023-02-08T09:08:25.791Z,99.90
2023-02-08T09:12:42.977Z,99.90
2023-02-08T09:17:00.167Z,99.90
2023-02-08T09:21:21.213Z,99.90
2023-02-08T09:25:38.376Z,99.90
2023-02-08T09:29:55.653Z,99.90
2023-02-08T09:34:12.817Z,99.90
2023-02-08T09:38:29.959Z,99.90
2023-02-08T09:42:57.139Z,99.90
2023-02-08T09:47:18.419Z,99.90
2023-02-08T09:51:52.582Z,99.90
2023-02-08T09:56:14.241Z,99.90
2023-02-08T10:00:37.127Z,99.90
2023-02-08T10:05:15.554Z,99.90
2023-02-08T10:09:32.644Z,99.90
2023-02-08T10:14:04.764Z,99.90
2023-02-08T10:18:40.779Z,99.90
2023-02-08T10:23:00.938Z,99.90
2023-02-08T10:27:28.120Z,99.90
2023-02-08T10:31:53.162Z,99.90
2023-02-08T10:36:18.035Z,99.90
2023-02-08T10:40:39.391Z,99.90
2023-02-08T10:45:24.328Z,99.90
2023-02-08T10:49:50.153Z,99.90
2023-02-08T10:54:12.730Z,99.90
2023-02-08T10:58:30.675Z,99.90
2023-02-08T11:02:54.499Z,99.90
2023-02-08T11:07:21.461Z,99.90
2023-02-08T11:11:42.829Z,99.90
2023-02-08T11:16:03.332Z,99.90
2023-02-08T11:20:31.497Z,99.90
2023-02-08T11:25:00.894Z,96.70
2023-02-08T11:29:21.013Z,97.60
2023-02-08T11:33:38.128Z,99.90
2023-02-08T11:37:58.299Z,99.90
2023-02-08T11:42:35.014Z,99.90
2023-02-08T11:46:53.481Z,99.90
2023-02-08T11:51:14.304Z,99.90
2023-02-08T11:55:33.275Z,99.90
2023-02-08T11:59:52.433Z,99.90
2023-02-08T12:04:14.856Z,99.90
2023-02-08T12:08:52.138Z,99.90
2023-02-08T12:13:18.028Z,99.90
2023-02-08T12:17:53.238Z,99.90
2023-02-08T12:22:20.740Z,97.60
2023-02-08T12:27:01.570Z,93.90
2023-02-08T12:31:43.038Z,92.20
2023-02-08T12:36:24.001Z,86.70
2023-02-08T12:41:08.593Z,91.00
2023-02-08T12:45:59.513Z,84.70
2023-02-08T12:50:31.355Z,90.80
2023-02-08T12:54:58.582Z,84.80
2023-02-08T12:59:35.509Z,84.50
2023-02-08T13:03:56.438Z,86.50
2023-02-08T13:08:31.907Z,92.00
2023-02-08T13:12:53.312Z,96.30
2023-02-08T13:17:24.222Z,99.90
2023-02-08T13:21:43.737Z,99.90
2023-02-08T13:26:06.369Z,99.90
2023-02-08T13:30:24.119Z,99.90
2023-02-08T13:34:48.283Z,99.90
2023-02-08T13:39:08.934Z,99.90
2023-02-08T13:43:37.328Z,99.90
2023-02-08T13:48:05.064Z,99.90
2023-02-08T13:52:46.856Z,99.90
2023-02-08T13:57:43.253Z,99.90
2023-02-08T14:02:12.878Z,99.90
2023-02-08T14:06:31.234Z,99.90
2023-02-08T14:11:02.898Z,99.90
2023-02-08T14:15:26.251Z,99.90
2023-02-08T14:19:46.592Z,99.90
2023-02-08T14:24:19.055Z,99.90
2023-02-08T14:28:42.879Z,99.90
2023-02-08T14:33:07.309Z,99.90
2023-02-08T14:37:24.360Z,99.90
2023-02-08T14:42:01.146Z,99.90
2023-02-08T14:46:36.941Z,99.90
2023-02-08T14:51:09.532Z,99.90
2023-02-08T14:55:32.091Z,99.90
2023-02-08T14:59:50.593Z,99.90
2023-02-08T15:04:08.570Z,99.90
2023-02-08T15:08:25.696Z,99.90
2023-02-08T15:12:55.922Z,99.90
2023-02-08T15:17:32.302Z,99.90
2023-02-08T15:21:49.486Z,99.90
2023-02-08T15:26:20.754Z,99.90
2023-02-08T15:30:39.546Z,99.90
2023-02-08T15:35:00.328Z,99.90
2023-02-08T15:39:35.929Z,99.90
2023-02-08T15:44:03.080Z,99.90
2023-02-08T15:48:20.988Z,99.90
2023-02-08T15:52:38.263Z,99.90
2023-02-08T15:57:18.700Z,99.90
2023-02-08T16:01:36.001Z,99.90
2023-02-08T16:05:57.536Z,99.90
2023-02-08T16:10:25.484Z,99.90
2023-02-08T16:14:52.411Z,99.90
2023-02-08T16:19:30.566Z,99.90
2023-02-08T16:24:06.340Z,99.90
2023-02-08T16:28:32.062Z,99.90
2023-02-08T16:32:49.558Z,99.90
2023-02-08T16:37:33.304Z,99.90
2023-02-08T16:41:57.243Z,99.90
2023-02-08T16:46:22.635Z,99.90
2023-02-08T16:50:39.988Z,99.90
2023-02-08T16:54:58.712Z,99.90
2023-02-08T16:59:16.794Z,99.90
2023-02-08T17:03:36.548Z,99.90
2023-02-08T17:07:53.782Z,99.90
2023-02-08T17:12:21.811Z,99.90
2023-02-08T17:16:43.856Z,99.90
2023-02-08T17:21:02.011Z,99.90
2023-02-08T17:25:20.174Z,99.90
2023-02-08T17:29:37.315Z,99.90
2023-02-08T17:33:55.636Z,99.90
2023-02-08T17:38:13.880Z,99.90
2023-02-08T17:42:32.395Z,99.90
2023-02-08T17:46:50.218Z,99.90
2023-02-08T17:51:17.384Z,99.90
2023-02-08T17:55:34.555Z,99.90
2023-02-08T17:59:51.821Z,99.90
2023-02-08T18:04:11.157Z,99.90
2023-02-08T18:08:28.629Z,99.90
2023-02-08T18:12:46.170Z,99.90
2023-02-08T18:17:03.370Z,99.90
2023-02-08T18:21:22.646Z,99.90
2023-02-08T18:25:41.516Z,99.90
2023-02-08T18:29:58.783Z,99.90
2023-02-08T18:34:19.033Z,99.90
2023-02-08T18:38:36.119Z,99.90
2023-02-08T18:42:53.221Z,99.90
2023-02-08T18:47:10.561Z,99.90
2023-02-08T18:51:30.096Z,99.90
2023-02-08T18:55:57.634Z,99.90
2023-02-08T19:00:15.694Z,99.90
2023-02-08T19:04:38.138Z,99.90
2023-02-08T19:08:58.339Z,99.90
2023-02-08T19:13:15.500Z,99.90
2023-02-08T19:17:32.662Z,99.90
2023-02-08T19:21:49.955Z,99.90
2023-02-08T19:26:15.942Z,99.90
2023-02-08T19:30:33.319Z,99.90
2023-02-08T19:34:50.440Z,99.90
2023-02-08T19:39:08.386Z,99.90
2023-02-08T19:43:25.602Z,99.90
2023-02-08T19:47:51.173Z,99.90
2023-02-08T19:52:08.968Z,99.90
2023-02-08T19:56:26.388Z,99.90
2023-02-08T20:00:43.568Z,99.90
2023-02-08T20:05:01.271Z,99.90
2023-02-08T20:09:18.435Z,99.90
2023-02-08T20:13:35.531Z,99.90
2023-02-08T20:17:52.617Z,99.90
2023-02-08T20:22:09.827Z,99.90
2023-02-08T20:26:28.385Z,99.90
2023-02-08T20:30:45.477Z,99.90
2023-02-08T20:35:02.650Z,99.90
2023-02-08T20:39:20.704Z,99.90
2023-02-08T20:43:37.944Z,99.90
2023-02-08T20:47:55.185Z,99.90
2023-02-08T20:52:12.367Z,99.90
2023-02-08T20:56:32.082Z,99.90
2023-02-08T21:00:49.531Z,99.90
2023-02-08T21:05:06.968Z,99.90
2023-02-08T21:09:24.118Z,99.90
2023-02-08T21:13:41.238Z,99.90
2023-02-08T21:17:58.386Z,99.90
2023-02-08T21:22:17.019Z,99.90
2023-02-08T21:26:34.138Z,99.90
2023-02-08T21:31:04.298Z,99.90
2023-02-08T21:35:21.599Z,99.90
2023-02-08T21:39:38.778Z,99.90
2023-02-08T21:43:58.277Z,99.90
2023-02-08T21:48:15.417Z,99.90
2023-02-08T21:52:51.404Z,99.90
2023-02-08T21:57:26.126Z,99.90
2023-02-08T22:01:43.257Z,99.90
2023-02-08T22:06:19.218Z,99.90
2023-02-08T22:10:36.383Z,99.90
2023-02-08T22:14:53.462Z,99.90
2023-02-08T22:19:10.668Z,99.90
2023-02-08T22:23:27.820Z,99.90
2023-02-08T22:27:45.586Z,99.90
2023-02-08T22:32:02.927Z,99.90
2023-02-08T22:36:20.509Z,99.90
2023-02-08T22:40:40.132Z,99.90
2023-02-08T22:44:57.360Z,99.90
2023-02-08T22:49:14.462Z,99.90
2023-02-08T22:53:31.589Z,99.90
2023-02-08T22:57:48.701Z,99.90
2023-02-08T23:02:06.151Z,99.90
2023-02-08T23:06:23.285Z,99.90
2023-02-08T23:10:40.675Z,99.90
2023-02-08T23:14:57.789Z,99.90
2023-02-08T23:19:16.170Z,99.90
2023-02-08T23:23:33.294Z,99.90
2023-02-08T23:27:50.427Z,99.90
2023-02-08T23:32:07.564Z,99.90
2023-02-08T23:36:24.734Z,99.90
2023-02-08T23:40:42.148Z,99.90
2023-02-08T23:45:01.064Z,99.90
2023-02-08T23:49:18.190Z,99.90
2023-02-08T23:53:36.807Z,99.90
2023-02-08T23:57:53.951Z,99.90
